createdAt,value
2017-08-21T00:00:44.242Z,97.42
2017-08-21T00:01:56.830Z,97.32
2017-08-21T00:03:09.427Z,97.32
2017-08-21T00:04:21.435Z,98.18
2017-08-21T00:05:34.126Z,98.08
2017-08-21T00:06:46.708Z,98.08
2017-08-21T00:07:59.035Z,98.18
2017-08-21T00:09:11.034Z,98.28
2017-08-21T00:10:23.619Z,98.66
2017-08-21T00:11:36.225Z,98.47
2017-08-21T00:12:48.573Z,98.85
2017-08-21T00:14:01.189Z,98.75
2017-08-21T00:15:13.445Z,99.04
2017-08-21T00:16:26.030Z,98.66
2017-08-21T00:17:38.330Z,98.71
2017-08-21T00:18:50.573Z,99.33
2017-08-21T00:20:03.168Z,99.23
2017-08-21T00:21:15.698Z,99.14
2017-08-21T00:22:28.282Z,99.71
2017-08-21T00:23:40.296Z,99.48
2017-08-21T00:24:52.849Z,99.62
2017-08-21T00:26:05.499Z,99.33
2017-08-21T00:27:18.047Z,99.52
2017-08-21T00:28:30.577Z,99.52
2017-08-21T00:29:42.535Z,99.14
2017-08-21T00:30:54.850Z,99.23
2017-08-21T00:32:07.409Z,99.71
2017-08-21T00:33:19.945Z,99.71
2017-08-21T00:34:32.506Z,99.95
2017-08-21T00:35:44.751Z,99.57
2017-08-21T00:36:56.708Z,99.57
2017-08-21T00:38:09.330Z,99.62
2017-08-21T00:39:21.606Z,99.95
2017-08-21T00:40:34.201Z,99.99
2017-08-21T00:41:46.490Z,99.99
2017-08-21T00:42:58.734Z,99.8
2017-08-21T00:44:11.304Z,99.8
2017-08-21T00:45:23.861Z,99.99
2017-08-21T00:46:36.446Z,99.99
2017-08-21T00:47:48.408Z,99.9
2017-08-21T00:49:00.415Z,99.99
2017-08-21T00:50:12.951Z,99.99
2017-08-21T00:51:25.587Z,99.99
2017-08-21T00:52:37.575Z,99.99
2017-08-21T00:53:49.526Z,99.9
2017-08-21T00:55:01.826Z,99.99
2017-08-21T00:56:14.491Z,99.99
2017-08-21T00:57:27.085Z,99.99
2017-08-21T00:58:39.660Z,99.8
2017-08-21T00:59:52.248Z,99.99
2017-08-21T01:01:04.761Z,99.71
2017-08-21T01:02:16.736Z,99.71
2017-08-21T01:03:29.313Z,99.9
2017-08-21T01:04:41.917Z,99.43
2017-08-21T01:05:53.601Z,99.23
2017-08-21T01:07:05.898Z,99.23
2017-08-21T01:08:18.470Z,99.18
2017-08-21T01:09:30.763Z,99.18
2017-08-21T01:10:43.010Z,98.52
2017-08-21T01:11:55.281Z,98.99
2017-08-21T01:13:07.838Z,98.42
2017-08-21T01:14:20.407Z,98.52
2017-08-21T01:15:32.995Z,98.42
2017-08-21T01:16:45.260Z,98.32
2017-08-21T01:17:57.884Z,98.42
2017-08-21T01:19:10.446Z,98.13
2017-08-21T01:20:23.066Z,97.94
2017-08-21T01:21:35.362Z,97.94
2017-08-21T01:22:47.643Z,97.94
2017-08-21T01:24:00.252Z,97.47
2017-08-21T01:25:12.232Z,97.85
2017-08-21T01:26:24.552Z,97.75
2017-08-21T01:27:36.213Z,97.47
2017-08-21T01:28:47.958Z,97.37
2017-08-21T01:30:00.525Z,97.27
2017-08-21T01:31:12.852Z,97.47
2017-08-21T01:32:25.435Z,97.27
2017-08-21T01:33:37.668Z,96.8
2017-08-21T01:34:49.572Z,96.61
2017-08-21T01:36:02.164Z,96.32
2017-08-21T01:37:14.454Z,96.13
2017-08-21T01:38:26.985Z,96.32
2017-08-21T01:39:39.253Z,96.22
2017-08-21T01:40:51.566Z,96.22
2017-08-21T01:42:04.156Z,95.75
2017-08-21T01:43:16.718Z,95.56
2017-08-21T01:44:28.978Z,95.56
2017-08-21T01:45:41.535Z,95.65
2017-08-21T01:46:53.502Z,95.65
2017-08-21T01:48:05.755Z,95.84
2017-08-21T01:49:18.434Z,94.98
2017-08-21T01:50:31.007Z,94.89
2017-08-21T01:51:43.602Z,94.98
2017-08-21T01:52:55.862Z,94.31
2017-08-21T01:54:07.826Z,94.51
2017-08-21T01:55:20.364Z,94.41
2017-08-21T01:56:32.638Z,94.22
2017-08-21T01:57:44.924Z,94.31
2017-08-21T01:58:57.251Z,94.12
2017-08-21T02:00:09.233Z,94.31
2017-08-21T02:01:21.529Z,94.31
2017-08-21T02:02:34.095Z,94.31
2017-08-21T02:03:46.669Z,94.12
2017-08-21T02:04:59.290Z,94.31
2017-08-21T02:06:11.608Z,94.12
2017-08-21T02:07:23.867Z,94.12
2017-08-21T02:08:36.147Z,94.31
2017-08-21T02:09:48.371Z,93.74
2017-08-21T02:11:00.949Z,93.74
2017-08-21T02:12:12.965Z,93.55
2017-08-21T02:13:25.262Z,93.46
2017-08-21T02:14:37.530Z,92.69
2017-08-21T02:15:50.072Z,92.79
2017-08-21T02:17:02.368Z,92.97
2017-08-21T02:18:14.907Z,92.02
2017-08-21T02:19:27.178Z,92.79
2017-08-21T02:20:39.730Z,92.21
2017-08-21T02:21:52.002Z,92.21
2017-08-21T02:23:04.569Z,91.93
2017-08-21T02:24:17.160Z,92.21
2017-08-21T02:25:29.743Z,91.78
2017-08-21T02:26:42.043Z,92.17
2017-08-21T02:27:54.365Z,91.83
2017-08-21T02:29:06.650Z,91.69
2017-08-21T02:30:18.964Z,91.02
2017-08-21T02:31:31.520Z,91.21
2017-08-21T02:32:43.764Z,91.12
2017-08-21T02:33:55.718Z,90.83
2017-08-21T02:35:07.706Z,90.64
2017-08-21T02:36:19.690Z,90.45
2017-08-21T02:37:32.279Z,90.45
2017-08-21T02:38:44.216Z,90.26
2017-08-21T02:39:56.536Z,90.07
2017-08-21T02:41:08.784Z,90.07
2017-08-21T02:42:21.654Z,90.45
2017-08-21T02:43:34.204Z,89.59
2017-08-21T02:44:46.474Z,89.59
2017-08-21T02:45:58.822Z,89.35
2017-08-21T02:47:11.456Z,88.83
2017-08-21T02:48:23.755Z,89.21
2017-08-21T02:49:35.750Z,89.21
2017-08-21T02:50:48.296Z,88.35
2017-08-21T02:52:00.621Z,89.12
2017-08-21T02:53:13.185Z,88.92
2017-08-21T02:54:25.465Z,88.64
2017-08-21T02:55:38.136Z,88.73
2017-08-21T02:56:50.740Z,88.73
2017-08-21T02:58:03.044Z,87.87
2017-08-21T02:59:15.608Z,87.87
2017-08-21T03:00:28.171Z,87.97
2017-08-21T03:01:40.460Z,87.78
2017-08-21T03:02:52.742Z,87.63
2017-08-21T03:04:05.122Z,87.73
2017-08-21T03:05:17.419Z,87.35
2017-08-21T03:06:29.964Z,87.44
2017-08-21T03:07:42.279Z,87.73
2017-08-21T03:08:54.864Z,87.63
2017-08-21T03:10:07.203Z,87.73
2017-08-21T03:11:19.723Z,88.2
2017-08-21T03:12:32.335Z,87.82
2017-08-21T03:13:44.989Z,88.3
2017-08-21T03:14:57.826Z,88.4
2017-08-21T03:16:10.323Z,88.68
2017-08-21T03:17:22.899Z,88.87
2017-08-21T03:18:35.492Z,88.97
2017-08-21T03:19:47.745Z,88.97
2017-08-21T03:21:00.070Z,88.97
2017-08-21T03:22:12.588Z,89.25
2017-08-21T03:23:25.221Z,89.25
2017-08-21T03:24:37.507Z,89.64
2017-08-21T03:25:50.037Z,89.54
2017-08-21T03:27:02.615Z,89.83
2017-08-21T03:28:15.187Z,90.21
2017-08-21T03:29:27.808Z,90.11
2017-08-21T03:30:40.384Z,90.21
2017-08-21T03:31:52.672Z,90.11
2017-08-21T03:33:05.261Z,90.59
2017-08-21T03:34:17.782Z,90.97
2017-08-21T03:35:30.078Z,90.31
2017-08-21T03:36:42.690Z,90.4
2017-08-21T03:37:54.669Z,90.97
2017-08-21T03:39:06.664Z,90.5
2017-08-21T03:40:19.242Z,90.69
2017-08-21T03:41:31.519Z,90.78
2017-08-21T03:42:43.808Z,90.97
2017-08-21T03:43:56.154Z,91.02
2017-08-21T03:45:08.177Z,90.73
2017-08-21T03:46:20.445Z,91.3
2017-08-21T03:47:33.035Z,91.4
2017-08-21T03:48:45.248Z,91.5
2017-08-21T03:49:57.261Z,91.59
2017-08-21T03:51:09.564Z,91.97
2017-08-21T03:52:21.878Z,91.97
2017-08-21T03:53:34.206Z,92.64
2017-08-21T03:54:46.799Z,92.36
2017-08-21T03:55:59.337Z,93.12
2017-08-21T03:57:11.937Z,92.83
2017-08-21T03:58:24.242Z,93.02
2017-08-21T03:59:36.827Z,93.41
2017-08-21T04:00:49.454Z,93.41
2017-08-21T04:02:02.022Z,93.41
2017-08-21T04:03:14.283Z,93.88
2017-08-21T04:04:26.310Z,94.07
2017-08-21T04:05:38.605Z,94.17
2017-08-21T04:06:50.899Z,94.17
2017-08-21T04:08:03.157Z,94.27
2017-08-21T04:09:15.471Z,94.07
2017-08-21T04:10:27.465Z,94.36
2017-08-21T04:11:39.129Z,94.55
2017-08-21T04:12:51.106Z,94.55
2017-08-21T04:14:03.113Z,94.55
2017-08-21T04:15:15.415Z,94.65
2017-08-21T04:16:28.050Z,94.46
2017-08-21T04:17:40.032Z,94.55
2017-08-21T04:18:52.680Z,94.36
2017-08-21T04:20:04.650Z,94.46
2017-08-21T04:21:16.950Z,94.17
2017-08-21T04:22:29.208Z,93.7
2017-08-21T04:23:41.142Z,93.88
2017-08-21T04:24:53.392Z,94.46
2017-08-21T04:26:05.725Z,94.46
2017-08-21T04:27:17.715Z,94.36
2017-08-21T04:28:30.306Z,94.17
2017-08-21T04:29:42.940Z,94.74
2017-08-21T04:30:55.438Z,94.55
2017-08-21T04:32:07.984Z,94.27
2017-08-21T04:33:20.578Z,94.46
2017-08-21T04:34:32.850Z,94.17
2017-08-21T04:35:45.474Z,94.46
2017-08-21T04:36:58.074Z,95.03
2017-08-21T04:38:10.401Z,94.84
2017-08-21T04:39:22.662Z,95.07
2017-08-21T04:40:35.233Z,94.84
2017-08-21T04:41:47.519Z,95.32
2017-08-21T04:43:00.159Z,95.27
2017-08-21T04:44:12.735Z,95.46
2017-08-21T04:45:25.286Z,95.46
2017-08-21T04:46:37.586Z,96.03
2017-08-21T04:47:49.902Z,95.65
2017-08-21T04:49:02.520Z,95.94
2017-08-21T04:50:15.106Z,96.22
2017-08-21T04:51:27.328Z,96.22
2017-08-21T04:52:39.898Z,96.89
2017-08-21T04:53:52.155Z,97.08
2017-08-21T04:55:04.803Z,96.99
2017-08-21T04:56:17.419Z,97.37
2017-08-21T04:57:29.991Z,97.47
2017-08-21T04:58:42.276Z,97.75
2017-08-21T04:59:54.555Z,97.94
2017-08-21T05:01:06.537Z,98.42
2017-08-21T05:02:18.824Z,97.94
2017-08-21T05:03:31.103Z,98.13
2017-08-21T05:04:43.363Z,98.13
2017-08-21T05:05:56.019Z,99.19
2017-08-21T05:07:08.328Z,98.71
2017-08-21T05:08:20.874Z,99.48
2017-08-21T05:09:33.771Z,99.19
2017-08-21T05:10:45.776Z,99.28
2017-08-21T05:11:58.370Z,98.99
2017-08-21T05:13:10.619Z,99.19
2017-08-21T05:14:23.230Z,99.24
2017-08-21T05:15:35.575Z,99.43
2017-08-21T05:16:47.567Z,99.71
2017-08-21T05:17:59.794Z,99.81
2017-08-21T05:19:12.030Z,99.99
2017-08-21T05:20:23.998Z,99.99
2017-08-21T05:21:35.969Z,99.99
2017-08-21T05:22:48.215Z,99.99
2017-08-21T05:24:00.773Z,99.99
2017-08-21T05:25:12.741Z,99.99
2017-08-21T05:26:25.371Z,99.99
2017-08-21T05:27:37.680Z,99.99
2017-08-21T05:28:50.300Z,99.99
2017-08-21T05:30:02.864Z,99.99
2017-08-21T05:31:15.166Z,99.99
2017-08-21T05:32:27.460Z,99.99
2017-08-21T05:33:39.468Z,99.99
2017-08-21T05:34:52.036Z,99.99
2017-08-21T05:36:04.049Z,99.99
2017-08-21T05:37:16.623Z,99.99
2017-08-21T05:38:29.269Z,99.99
2017-08-21T05:39:40.936Z,99.99
2017-08-21T05:40:52.882Z,99.99
2017-08-21T05:42:05.107Z,99.99
2017-08-21T05:43:17.721Z,99.99
2017-08-21T05:44:30.311Z,99.99
2017-08-21T05:45:42.922Z,99.99
2017-08-21T05:46:55.458Z,99.99
2017-08-21T05:48:08.030Z,99.99
2017-08-21T05:49:20.626Z,99.99
2017-08-21T05:50:33.207Z,99.99
2017-08-21T05:51:45.160Z,99.99
2017-08-21T05:52:57.423Z,99.99
2017-08-21T05:54:10.059Z,99.99
2017-08-21T05:55:22.028Z,99.99
2017-08-21T05:56:34.324Z,99.99
2017-08-21T05:57:47.113Z,99.99
2017-08-21T05:58:59.315Z,99.99
2017-08-21T06:00:11.917Z,99.99
2017-08-21T06:01:23.906Z,99.99
2017-08-21T06:02:36.458Z,99.99
2017-08-21T06:03:48.742Z,99.99
2017-08-21T06:05:01.360Z,99.99
2017-08-21T06:06:13.632Z,99.99
2017-08-21T06:07:26.216Z,99.99
2017-08-21T06:08:38.134Z,99.99
2017-08-21T06:09:50.745Z,99.99
2017-08-21T06:11:02.690Z,99.99
2017-08-21T06:12:15.294Z,99.99
2017-08-21T06:13:27.913Z,99.99
2017-08-21T06:14:40.485Z,99.99
2017-08-21T06:15:52.779Z,99.99
2017-08-21T06:17:05.079Z,99.99
2017-08-21T06:18:17.382Z,99.99
2017-08-21T06:19:29.692Z,99.99
2017-08-21T06:20:41.689Z,99.99
2017-08-21T06:21:54.232Z,99.99
2017-08-21T06:23:06.579Z,99.99
2017-08-21T06:24:19.107Z,99.99
2017-08-21T06:25:31.653Z,99.99
2017-08-21T06:26:44.284Z,99.99
2017-08-21T06:27:56.848Z,99.99
2017-08-21T06:29:09.444Z,99.99
2017-08-21T06:30:21.471Z,99.99
2017-08-21T06:31:34.128Z,99.99
2017-08-21T06:32:46.068Z,99.99
2017-08-21T06:33:58.344Z,99.99
2017-08-21T06:35:10.035Z,99.99
2017-08-21T06:36:22.055Z,99.99
2017-08-21T06:37:34.295Z,99.99
2017-08-21T06:38:46.545Z,99.99
2017-08-21T06:39:58.802Z,99.99
2017-08-21T06:41:11.704Z,99.99
2017-08-21T06:42:23.706Z,99.99
2017-08-21T06:43:35.691Z,99.99
2017-08-21T06:44:48.299Z,99.99
2017-08-21T06:46:00.646Z,99.99
2017-08-21T06:47:12.910Z,99.99
2017-08-21T06:48:24.906Z,99.99
2017-08-21T06:49:37.482Z,99.99
2017-08-21T06:50:50.103Z,99.99
2017-08-21T06:52:02.474Z,99.99
2017-08-21T06:53:15.044Z,99.99
2017-08-21T06:54:27.706Z,99.99
2017-08-21T06:55:40.286Z,99.99
2017-08-21T06:56:52.581Z,99.99
2017-08-21T06:58:05.227Z,99.99
2017-08-21T06:59:17.766Z,99.99
2017-08-21T07:00:30.371Z,99.99
2017-08-21T07:01:42.396Z,99.99
2017-08-21T07:02:55.221Z,99.99
2017-08-21T07:04:07.492Z,99.99
2017-08-21T07:05:19.810Z,99.99
2017-08-21T07:06:32.414Z,99.99
2017-08-21T07:07:44.952Z,99.99
2017-08-21T07:08:56.597Z,99.99
2017-08-21T07:10:09.224Z,99.99
2017-08-21T07:11:21.485Z,99.99
2017-08-21T07:12:34.017Z,99.99
2017-08-21T07:13:45.913Z,99.99
2017-08-21T07:14:58.219Z,99.99
2017-08-21T07:16:10.180Z,99.99
2017-08-21T07:17:22.858Z,99.99
2017-08-21T07:18:35.220Z,99.99
2017-08-21T07:19:47.740Z,99.99
2017-08-21T07:20:59.411Z,99.99
2017-08-21T07:22:11.689Z,99.99
2017-08-21T07:23:23.684Z,99.99
2017-08-21T07:24:35.980Z,99.99
2017-08-21T07:25:48.577Z,99.99
2017-08-21T07:27:01.126Z,99.99
2017-08-21T07:28:13.778Z,99.99
2017-08-21T07:29:26.453Z,99.99
2017-08-21T07:30:39.063Z,99.99
2017-08-21T07:31:51.416Z,99.99
2017-08-21T07:33:03.774Z,99.99
2017-08-21T07:34:16.354Z,99.99
2017-08-21T07:35:28.967Z,99.99
2017-08-21T07:36:41.499Z,99.99
2017-08-21T07:37:53.840Z,99.99
2017-08-21T07:39:06.414Z,99.99
2017-08-21T07:40:18.711Z,99.99
2017-08-21T07:41:31.385Z,99.99
2017-08-21T07:42:43.976Z,99.99
2017-08-21T07:43:55.940Z,99.99
2017-08-21T07:45:08.531Z,99.99
2017-08-21T07:46:20.451Z,99.99
2017-08-21T07:47:32.409Z,99.99
2017-08-21T07:48:44.744Z,99.99
2017-08-21T07:49:56.968Z,99.99
2017-08-21T07:51:09.516Z,99.99
2017-08-21T07:52:22.137Z,99.99
2017-08-21T07:53:34.694Z,99.99
2017-08-21T07:54:47.305Z,99.99
2017-08-21T07:55:59.642Z,99.99
2017-08-21T07:57:12.165Z,99.99
2017-08-21T07:58:24.517Z,99.99
2017-08-21T07:59:36.783Z,99.99
2017-08-21T08:00:49.124Z,99.99
2017-08-21T08:02:01.780Z,99.99
2017-08-21T08:03:14.021Z,99.99
2017-08-21T08:04:26.613Z,99.99
2017-08-21T08:05:38.611Z,99.99
2017-08-21T08:06:51.238Z,99.99
2017-08-21T08:08:03.191Z,99.99
2017-08-21T08:09:15.796Z,99.99
2017-08-21T08:10:28.382Z,99.78
2017-08-21T08:11:40.946Z,99.49
2017-08-21T08:12:52.551Z,99.4
2017-08-21T08:14:05.127Z,99.1
2017-08-21T08:15:17.690Z,99.49
2017-08-21T08:16:30.304Z,99.78
2017-08-21T08:17:42.638Z,99.54
2017-08-21T08:18:55.211Z,98.68
2017-08-21T08:20:07.786Z,98.77
2017-08-21T08:21:20.082Z,98.29
2017-08-21T08:22:32.074Z,98.29
2017-08-21T08:23:44.363Z,98.29
2017-08-21T08:24:56.990Z,97.71
2017-08-21T08:26:09.285Z,98.19
2017-08-21T08:27:21.914Z,98.29
2017-08-21T08:28:34.243Z,97.91
2017-08-21T08:29:46.526Z,97.91
2017-08-21T08:30:58.582Z,97.91
2017-08-21T08:32:10.853Z,98.1
2017-08-21T08:33:22.757Z,97.42
2017-08-21T08:34:34.396Z,97.86
2017-08-21T08:35:46.949Z,97.42
2017-08-21T08:36:59.250Z,97.47
2017-08-21T08:38:11.591Z,97.57
2017-08-21T08:39:24.166Z,97.67
2017-08-21T08:40:36.433Z,97.47
2017-08-21T08:41:49.033Z,97.57
2017-08-21T08:43:01.597Z,96.9
2017-08-21T08:44:13.605Z,97.09
2017-08-21T08:45:25.897Z,97.33
2017-08-21T08:46:38.527Z,97.52
2017-08-21T08:47:50.508Z,97.91
2017-08-21T08:49:02.432Z,98.1
2017-08-21T08:50:14.429Z,97.91
2017-08-21T08:51:26.692Z,97.47
2017-08-21T08:52:39.291Z,97.96
2017-08-21T08:53:50.994Z,98.44
2017-08-21T08:55:03.353Z,97.96
2017-08-21T08:56:15.661Z,97.76
2017-08-21T08:57:28.244Z,97.76
2017-08-21T08:58:40.521Z,97.96
2017-08-21T08:59:52.514Z,97.38
2017-08-21T09:01:05.175Z,97.28
2017-08-21T09:02:17.746Z,97.04
2017-08-21T09:03:30.067Z,96.66
2017-08-21T09:04:42.596Z,95.89
2017-08-21T09:05:54.556Z,95.89
2017-08-21T09:07:06.636Z,95.89
2017-08-21T09:08:18.923Z,95.4
2017-08-21T09:09:31.183Z,95.21
2017-08-21T09:10:43.129Z,95.4
2017-08-21T09:11:55.417Z,95.4
2017-08-21T09:13:08.089Z,94.83
2017-08-21T09:14:20.720Z,95.31
2017-08-21T09:15:32.686Z,95.89
2017-08-21T09:16:45.287Z,95.79
2017-08-21T09:17:57.881Z,95.79
2017-08-21T09:19:10.472Z,95.89
2017-08-21T09:20:22.736Z,95.5
2017-08-21T09:21:35.282Z,96.08
2017-08-21T09:22:47.608Z,95.21
2017-08-21T09:24:00.166Z,95.98
2017-08-21T09:25:12.471Z,95.98
2017-08-21T09:26:24.443Z,95.84
2017-08-21T09:27:37.029Z,96.08
2017-08-21T09:28:49.562Z,95.84
2017-08-21T09:30:02.189Z,95.89
2017-08-21T09:31:14.802Z,95.79
2017-08-21T09:32:27.381Z,94.73
2017-08-21T09:33:39.308Z,94.45
2017-08-21T09:34:51.566Z,94.83
2017-08-21T09:36:04.191Z,94.73
2017-08-21T09:37:16.521Z,95.02
2017-08-21T09:38:29.153Z,94.83
2017-08-21T09:39:41.404Z,95.55
2017-08-21T09:40:53.990Z,94.3
2017-08-21T09:42:06.000Z,93.43
2017-08-21T09:43:18.520Z,93.58
2017-08-21T09:44:30.533Z,94.35
2017-08-21T09:45:43.172Z,94.15
2017-08-21T09:46:55.739Z,94.35
2017-08-21T09:48:08.363Z,94.59
2017-08-21T09:49:20.603Z,94.49
2017-08-21T09:50:32.611Z,94.3
2017-08-21T09:51:44.938Z,94.78
2017-08-21T09:52:57.510Z,94.49
2017-08-21T09:54:09.451Z,93.82
2017-08-21T09:55:21.753Z,93.43
2017-08-21T09:56:34.359Z,93.48
2017-08-21T09:57:46.978Z,92.95
2017-08-21T09:58:59.566Z,92.66
2017-08-21T10:00:11.536Z,92.85
2017-08-21T10:01:24.167Z,92.71
2017-08-21T10:02:36.810Z,93.38
2017-08-21T10:03:49.427Z,93.43
2017-08-21T10:05:01.732Z,93.91
2017-08-21T10:06:13.962Z,93.72
2017-08-21T10:07:25.980Z,93.53
2017-08-21T10:08:38.545Z,92.95
2017-08-21T10:09:50.837Z,92.95
2017-08-21T10:11:03.451Z,92.76
2017-08-21T10:12:16.025Z,93.24
2017-08-21T10:13:27.970Z,97.38
2017-08-21T10:14:39.969Z,99.99
2017-08-21T10:15:52.286Z,99.93
2017-08-21T10:17:04.282Z,99.99
2017-08-21T10:18:17.148Z,99.99
2017-08-21T10:19:29.173Z,99.99
2017-08-21T10:20:41.737Z,99.99
2017-08-21T10:21:53.730Z,99.99
2017-08-21T10:23:05.962Z,99.99
2017-08-21T10:24:18.274Z,99.99
2017-08-21T10:25:30.533Z,99.99
2017-08-21T10:26:42.832Z,98.87
2017-08-21T10:27:55.417Z,97.81
2017-08-21T10:29:07.986Z,97.28
2017-08-21T10:30:20.540Z,97.57
2017-08-21T10:31:32.457Z,97.04
2017-08-21T10:32:44.731Z,95.45
2017-08-21T10:33:56.450Z,93.91
2017-08-21T10:35:09.096Z,94.54
2017-08-21T10:36:21.694Z,93.19
2017-08-21T10:37:33.691Z,92.08
2017-08-21T10:38:45.935Z,88.84
2017-08-21T10:39:58.560Z,87.53
2017-08-21T10:41:11.153Z,85.99
2017-08-21T10:42:23.495Z,85.6
2017-08-21T10:43:35.793Z,85.12
2017-08-21T10:44:48.106Z,84.64
2017-08-21T10:46:00.384Z,84.1
2017-08-21T10:47:12.316Z,84.39
2017-08-21T10:48:24.845Z,84.35
2017-08-21T10:49:37.125Z,85.12
2017-08-21T10:50:49.721Z,84.93
2017-08-21T10:52:02.054Z,84.54
2017-08-21T10:53:13.712Z,83.67
2017-08-21T10:54:26.330Z,82.81
2017-08-21T10:55:38.592Z,83.53
2017-08-21T10:56:51.266Z,83.63
2017-08-21T10:58:03.545Z,82.81
2017-08-21T10:59:16.180Z,82.61
2017-08-21T11:00:28.486Z,81.84
2017-08-21T11:01:41.026Z,82.26
2017-08-21T11:02:53.629Z,82.75
2017-08-21T11:04:05.918Z,82.84
2017-08-21T11:05:17.619Z,82.31
2017-08-21T11:06:30.210Z,81.53
2017-08-21T11:07:42.825Z,81.68
2017-08-21T11:08:55.420Z,82.46
2017-08-21T11:10:07.459Z,82.26
2017-08-21T11:11:19.739Z,82.81
2017-08-21T11:12:32.336Z,83.77
2017-08-21T11:13:44.920Z,83.87
2017-08-21T11:14:57.559Z,84.11
2017-08-21T11:16:09.959Z,84.31
2017-08-21T11:17:22.207Z,84.79
2017-08-21T11:18:34.740Z,85.91
2017-08-21T11:19:47.030Z,86
2017-08-21T11:20:59.035Z,86.48
2017-08-21T11:22:11.681Z,85.81
2017-08-21T11:23:24.267Z,86.1
2017-08-21T11:24:36.924Z,86.58
2017-08-21T11:25:49.571Z,86.68
2017-08-21T11:27:02.214Z,86.39
2017-08-21T11:28:14.184Z,85.94
2017-08-21T11:29:26.495Z,84.54
2017-08-21T11:30:38.440Z,83.77
2017-08-21T11:31:50.804Z,82.31
2017-08-21T11:33:03.375Z,81.57
2017-08-21T11:34:15.987Z,80.55
2017-08-21T11:35:27.957Z,78.75
2017-08-21T11:36:39.956Z,76.76
2017-08-21T11:37:51.952Z,75.15
2017-08-21T11:39:04.586Z,72.96
2017-08-21T11:40:16.895Z,72.02
2017-08-21T11:41:29.179Z,72.71
2017-08-21T11:42:41.833Z,73.28
2017-08-21T11:43:54.167Z,73.58
2017-08-21T11:45:06.451Z,72.35
2017-08-21T11:46:18.420Z,70.9
2017-08-21T11:47:30.723Z,70.06
2017-08-21T11:48:43.326Z,70.15
2017-08-21T11:49:55.647Z,69.57
2017-08-21T11:51:07.916Z,69.51
2017-08-21T11:52:20.299Z,69.32
2017-08-21T11:53:32.939Z,69.38
2017-08-21T11:54:45.282Z,69.86
2017-08-21T11:55:57.936Z,70.7
2017-08-21T11:57:10.594Z,79.24
2017-08-21T11:58:22.902Z,81.13
2017-08-21T11:59:35.187Z,80.9
2017-08-21T12:00:47.506Z,79.22
2017-08-21T12:01:59.516Z,79.6
2017-08-21T12:03:11.841Z,79.57
2017-08-21T12:04:24.472Z,80.11
2017-08-21T12:05:36.465Z,80.2
2017-08-21T12:06:48.762Z,79.97
2017-08-21T12:08:01.322Z,79.52
2017-08-21T12:09:13.884Z,80.46
2017-08-21T12:10:26.490Z,80.4
2017-08-21T12:11:38.442Z,78.66
2017-08-21T12:12:50.838Z,78.08
2017-08-21T12:14:03.437Z,78.27
2017-08-21T12:15:15.755Z,78.27
2017-08-21T12:16:28.068Z,78.59
2017-08-21T12:17:40.651Z,77.53
2017-08-21T12:18:52.954Z,76.95
2017-08-21T12:20:05.498Z,76.82
2017-08-21T12:21:18.109Z,78.94
2017-08-21T12:22:30.036Z,81.75
2017-08-21T12:23:42.267Z,84.27
2017-08-21T12:24:54.876Z,83.55
2017-08-21T12:26:07.450Z,81.9
2017-08-21T12:27:19.723Z,80.55
2017-08-21T12:28:32.356Z,80.11
2017-08-21T12:29:44.604Z,78.66
2017-08-21T12:30:57.226Z,78.27
2017-08-21T12:32:09.186Z,78.75
2017-08-21T12:33:21.457Z,78.08
2017-08-21T12:34:34.021Z,77.3
2017-08-21T12:35:45.989Z,77.11
2017-08-21T12:36:57.968Z,77.59
2017-08-21T12:38:10.247Z,77.5
2017-08-21T12:39:22.210Z,78.75
2017-08-21T12:40:34.866Z,78.36
2017-08-21T12:41:47.913Z,79.49
2017-08-21T12:43:00.583Z,79.58
2017-08-21T12:44:12.553Z,80.36
2017-08-21T12:45:24.831Z,80.16
2017-08-21T12:46:37.467Z,79.83
2017-08-21T12:47:49.737Z,80.32
2017-08-21T12:49:02.386Z,80.61
2017-08-21T12:50:14.345Z,80.8
2017-08-21T12:51:25.731Z,81.09
2017-08-21T12:52:38.022Z,80.61
2017-08-21T12:53:50.316Z,79.64
2017-08-21T12:55:02.859Z,79.16
2017-08-21T12:56:14.834Z,78.19
2017-08-21T12:57:27.152Z,78.48
2017-08-21T12:58:39.388Z,77.8
2017-08-21T12:59:51.086Z,77.71
2017-08-21T13:01:03.378Z,77.86
2017-08-21T13:02:15.038Z,77.86
2017-08-21T13:03:27.323Z,78.54
2017-08-21T13:04:39.624Z,79.6
2017-08-21T13:05:51.629Z,79.99
2017-08-21T13:07:03.908Z,80.38
2017-08-21T13:08:16.480Z,80.43
2017-08-21T13:09:28.733Z,81.44
2017-08-21T13:10:41.358Z,80.76
2017-08-21T13:11:53.036Z,80.53
2017-08-21T13:13:05.320Z,79.85
2017-08-21T13:14:17.607Z,80.91
2017-08-21T13:15:29.924Z,80.82
2017-08-21T13:16:41.918Z,80.82
2017-08-21T13:17:54.166Z,80.53
2017-08-21T13:19:06.703Z,81.11
2017-08-21T13:20:19.307Z,80.43
2017-08-21T13:21:31.895Z,80.58
2017-08-21T13:22:44.516Z,81.26
2017-08-21T13:23:56.577Z,82.13
2017-08-21T13:25:09.176Z,81.84
2017-08-21T13:26:21.447Z,82.03
2017-08-21T13:27:34.014Z,83.09
2017-08-21T13:28:46.630Z,83.29
2017-08-21T13:29:58.897Z,82.51
2017-08-21T13:31:10.861Z,81.93
2017-08-21T13:32:23.198Z,82.13
2017-08-21T13:33:35.157Z,81.65
2017-08-21T13:34:47.501Z,80.87
2017-08-21T13:35:58.543Z,81.16
2017-08-21T13:37:10.556Z,80.97
2017-08-21T13:38:22.822Z,81.26
2017-08-21T13:39:35.067Z,81.55
2017-08-21T13:40:47.363Z,88.36
2017-08-21T13:41:59.583Z,93.57
2017-08-21T13:43:11.899Z,95.06
2017-08-21T13:44:24.186Z,94.58
2017-08-21T13:45:36.597Z,95.89
2017-08-21T13:46:48.965Z,97.04
2017-08-21T13:48:01.293Z,98.15
2017-08-21T13:49:13.940Z,98.44
2017-08-21T13:50:26.627Z,99.16
2017-08-21T13:51:39.187Z,98.87
2017-08-21T13:52:51.462Z,99.93
2017-08-21T13:54:03.833Z,99.35
2017-08-21T13:55:16.461Z,98.68
2017-08-21T13:56:28.473Z,98
2017-08-21T13:57:40.157Z,98.1
2017-08-21T13:58:51.556Z,98.29
2017-08-21T14:00:03.819Z,96.37
2017-08-21T14:01:16.420Z,95.5
2017-08-21T14:02:29.045Z,93
2017-08-21T14:03:41.337Z,93.38
2017-08-21T14:04:53.383Z,93.48
2017-08-21T14:06:05.951Z,93.14
2017-08-21T14:07:18.216Z,93.48
2017-08-21T14:08:30.494Z,93.19
2017-08-21T14:09:42.830Z,93.48
2017-08-21T14:10:55.446Z,92.52
2017-08-21T14:12:07.403Z,92.03
2017-08-21T14:13:19.981Z,91.65
2017-08-21T14:14:32.021Z,92.08
2017-08-21T14:15:44.343Z,92.22
2017-08-21T14:16:56.646Z,91.51
2017-08-21T14:18:08.918Z,91.03
2017-08-21T14:19:21.182Z,90.73
2017-08-21T14:20:33.533Z,91.22
2017-08-21T14:21:45.189Z,91.31
2017-08-21T14:22:57.457Z,90.93
2017-08-21T14:24:10.030Z,91.22
2017-08-21T14:25:22.310Z,96.08
2017-08-21T14:26:34.598Z,99.99
2017-08-21T14:27:46.931Z,99.99
2017-08-21T14:28:59.195Z,99.99
2017-08-21T14:30:11.765Z,99.99
2017-08-21T14:31:23.453Z,99.99
2017-08-21T14:32:35.433Z,99.99
2017-08-21T14:33:47.431Z,99.99
2017-08-21T14:34:59.391Z,99.99
2017-08-21T14:36:11.649Z,99.99
2017-08-21T14:37:23.930Z,99.99
2017-08-21T14:38:36.536Z,99.99
2017-08-21T14:39:49.142Z,99.99
2017-08-21T14:41:00.520Z,99.99
2017-08-21T14:42:13.078Z,99.99
2017-08-21T14:43:25.100Z,99.99
2017-08-21T14:44:36.756Z,99.99
2017-08-21T14:45:48.758Z,99.99
2017-08-21T14:47:01.338Z,99.99
2017-08-21T14:48:13.361Z,99.99
2017-08-21T14:49:25.015Z,99.99
2017-08-21T14:50:37.015Z,99.99
2017-08-21T14:51:49.049Z,99.99
2017-08-21T14:53:01.691Z,99.99
2017-08-21T14:54:13.730Z,99.99
2017-08-21T14:55:26.292Z,99.99
2017-08-21T14:56:38.526Z,99.99
2017-08-21T14:57:50.790Z,99.99
2017-08-21T14:59:03.105Z,99.99
2017-08-21T15:00:15.369Z,99.99
2017-08-21T15:01:27.696Z,99.99
2017-08-21T15:02:40.301Z,99.99
2017-08-21T15:03:52.568Z,99.99
2017-08-21T15:05:04.551Z,99.99
2017-08-21T15:06:16.889Z,99.99
2017-08-21T15:07:29.206Z,99.99
2017-08-21T15:08:40.868Z,99.99
2017-08-21T15:09:52.855Z,99.99
2017-08-21T15:11:05.158Z,99.99
2017-08-21T15:12:17.457Z,99.99
2017-08-21T15:13:29.441Z,99.99
2017-08-21T15:14:41.120Z,99.99
2017-08-21T15:15:53.712Z,99.99
2017-08-21T15:17:06.289Z,99.99
2017-08-21T15:18:18.553Z,99.99
2017-08-21T15:19:31.136Z,99.99
2017-08-21T15:20:43.134Z,99.99
2017-08-21T15:21:55.130Z,99.99
2017-08-21T15:23:07.054Z,99.15
2017-08-21T15:24:19.393Z,98.77
2017-08-21T15:25:31.702Z,97.81
2017-08-21T15:26:43.415Z,97.81
2017-08-21T15:27:55.707Z,97.71
2017-08-21T15:29:08.297Z,98.1
2017-08-21T15:30:20.803Z,98.1
2017-08-21T15:31:32.768Z,97.14
2017-08-21T15:32:44.809Z,97.24
2017-08-21T15:33:57.085Z,97.91